sensor_id;sensor_type;location;lat;lon;timestamp;pressure;altitude;pressure_sealevel;temperature;humidity
85319;BME280;75722;49.004;12.120;2024-01-27T00:02:25;99250.00;;;1.54;70.48
85319;BME280;75722;49.004;12.120;2024-01-27T00:04:51;99258.41;;;1.48;70.71
85319;BME280;75722;49.004;12.120;2024-01-27T00:07:17;99258.66;;;1.58;70.05
85319;BME280;75722;49.004;12.120;2024-01-27T00:09:42;99253.94;;;1.48;70.74
85319;BME280;75722;49.004;12.120;2024-01-27T00:12:08;99255.81;;;1.46;71.01
85319;BME280;75722;49.004;12.120;2024-01-27T00:14:33;99263.84;;;1.46;71.07
85319;BME280;75722;49.004;12.120;2024-01-27T00:16:59;99261.16;;;1.46;70.40
85319;BME280;75722;49.004;12.120;2024-01-27T00:19:24;99252.53;;;1.43;71.47
85319;BME280;75722;49.004;12.120;2024-01-27T00:21:49;99257.97;;;1.41;71.43
85319;BME280;75722;49.004;12.120;2024-01-27T00:24:15;99258.06;;;1.39;71.81
85319;BME280;75722;49.004;12.120;2024-01-27T00:26:41;99255.59;;;1.36;71.22
85319;BME280;75722;49.004;12.120;2024-01-27T00:29:06;99247.28;;;1.41;71.04
85319;BME280;75722;49.004;12.120;2024-01-27T00:31:32;99247.56;;;1.36;71.02
85319;BME280;75722;49.004;12.120;2024-01-27T00:33:57;99252.72;;;1.39;71.59
85319;BME280;75722;49.004;12.120;2024-01-27T00:36:22;99256.13;;;1.41;71.02
85319;BME280;75722;49.004;12.120;2024-01-27T00:38:48;99263.31;;;1.41;71.55
85319;BME280;75722;49.004;12.120;2024-01-27T00:41:17;99261.59;;;1.40;71.06
85319;BME280;75722;49.004;12.120;2024-01-27T00:43:42;99254.13;;;1.45;70.98
85319;BME280;75722;49.004;12.120;2024-01-27T00:46:07;99267.13;;;1.37;71.71
85319;BME280;75722;49.004;12.120;2024-01-27T00:48:33;99271.75;;;1.48;70.60
85319;BME280;75722;49.004;12.120;2024-01-27T00:50:58;99271.59;;;1.36;70.52
85319;BME280;75722;49.004;12.120;2024-01-27T00:53:23;99273.31;;;1.37;70.74
85319;BME280;75722;49.004;12.120;2024-01-27T00:55:49;99276.50;;;1.30;71.83
85319;BME280;75722;49.004;12.120;2024-01-27T00:58:15;99289.16;;;1.26;71.07
85319;BME280;75722;49.004;12.120;2024-01-27T01:00:41;99287.47;;;1.25;71.25
85319;BME280;75722;49.004;12.120;2024-01-27T01:03:06;99287.97;;;1.17;71.64
85319;BME280;75722;49.004;12.120;2024-01-27T01:05:31;99293.69;;;1.11;71.93
85319;BME280;75722;49.004;12.120;2024-01-27T01:07:57;99287.69;;;1.07;72.27
85319;BME280;75722;49.004;12.120;2024-01-27T01:10:22;99294.16;;;1.03;71.95
85319;BME280;75722;49.004;12.120;2024-01-27T01:12:48;99296.84;;;1.03;72.28
85319;BME280;75722;49.004;12.120;2024-01-27T01:15:13;99302.88;;;0.92;72.45
85319;BME280;75722;49.004;12.120;2024-01-27T01:17:39;99299.13;;;0.95;72.72
85319;BME280;75722;49.004;12.120;2024-01-27T01:20:05;99313.16;;;0.84;72.87
85319;BME280;75722;49.004;12.120;2024-01-27T01:22:30;99316.88;;;0.81;73.02
85319;BME280;75722;49.004;12.120;2024-01-27T01:24:56;99316.50;;;0.73;72.89
85319;BME280;75722;49.004;12.120;2024-01-27T01:27:21;99315.38;;;0.77;72.60
85319;BME280;75722;49.004;12.120;2024-01-27T01:29:47;99307.25;;;0.79;73.14
85319;BME280;75722;49.004;12.120;2024-01-27T01:32:12;99309.34;;;0.73;72.52
85319;BME280;75722;49.004;12.120;2024-01-27T01:34:37;99314.69;;;0.73;72.97
85319;BME280;75722;49.004;12.120;2024-01-27T01:37:03;99325.53;;;0.70;73.16
85319;BME280;75722;49.004;12.120;2024-01-27T01:39:28;99324.78;;;0.54;73.43
85319;BME280;75722;49.004;12.120;2024-01-27T01:41:54;99332.31;;;0.47;73.41
85319;BME280;75722;49.004;12.120;2024-01-27T01:44:19;99319.25;;;0.42;73.73
85319;BME280;75722;49.004;12.120;2024-01-27T01:46:45;99318.19;;;0.45;74.07
85319;BME280;75722;49.004;12.120;2024-01-27T01:49:11;99327.25;;;0.57;73.36
85319;BME280;75722;49.004;12.120;2024-01-27T01:51:36;99324.19;;;0.63;73.36
85319;BME280;75722;49.004;12.120;2024-01-27T01:54:02;99331.44;;;0.61;73.32
85319;BME280;75722;49.004;12.120;2024-01-27T01:56:28;99327.53;;;0.52;73.26
85319;BME280;75722;49.004;12.120;2024-01-27T01:58:54;99331.03;;;0.38;73.76
85319;BME280;75722;49.004;12.120;2024-01-27T02:01:20;99332.19;;;0.34;73.91
85319;BME280;75722;49.004;12.120;2024-01-27T02:03:57;99334.75;;;0.35;74.13
85319;BME280;75722;49.004;12.120;2024-01-27T02:06:22;99329.59;;;0.32;73.91
85319;BME280;75722;49.004;12.120;2024-01-27T02:08:48;99336.47;;;0.36;73.80
85319;BME280;75722;49.004;12.120;2024-01-27T02:11:13;99341.22;;;0.31;73.32
85319;BME280;75722;49.004;12.120;2024-01-27T02:13:39;99339.88;;;0.24;74.12
85319;BME280;75722;49.004;12.120;2024-01-27T02:16:05;99347.66;;;0.12;74.22
85319;BME280;75722;49.004;12.120;2024-01-27T02:18:30;99354.28;;;0.05;74.62
85319;BME280;75722;49.004;12.120;2024-01-27T02:20:55;99348.56;;;-0.03;74.25
85319;BME280;75722;49.004;12.120;2024-01-27T02:23:21;99361.72;;;-0.16;74.46
85319;BME280;75722;49.004;12.120;2024-01-27T02:25:46;99357.88;;;-0.27;74.83
85319;BME280;75722;49.004;12.120;2024-01-27T02:28:11;99355.47;;;-0.31;75.15
85319;BME280;75722;49.004;12.120;2024-01-27T02:30:38;99357.38;;;-0.33;75.35
85319;BME280;75722;49.004;12.120;2024-01-27T02:33:04;99359.16;;;-0.34;75.72
85319;BME280;75722;49.004;12.120;2024-01-27T02:35:29;99354.97;;;-0.38;75.81
85319;BME280;75722;49.004;12.120;2024-01-27T02:37:55;99362.78;;;-0.35;75.37
85319;BME280;75722;49.004;12.120;2024-01-27T02:40:20;99360.78;;;-0.31;75.68
85319;BME280;75722;49.004;12.120;2024-01-27T02:42:46;99364.22;;;-0.29;75.69
85319;BME280;75722;49.004;12.120;2024-01-27T02:45:13;99365.34;;;-0.33;75.49
85319;BME280;75722;49.004;12.120;2024-01-27T02:47:38;99376.25;;;-0.38;75.69
85319;BME280;75722;49.004;12.120;2024-01-27T02:50:04;99371.09;;;-0.41;76.16
85319;BME280;75722;49.004;12.120;2024-01-27T02:52:31;99371.03;;;-0.40;76.25
85319;BME280;75722;49.004;12.120;2024-01-27T02:54:57;99375.13;;;-0.34;75.72
85319;BME280;75722;49.004;12.120;2024-01-27T02:57:22;99380.53;;;-0.35;75.53
85319;BME280;75722;49.004;12.120;2024-01-27T02:59:48;99380.28;;;-0.31;76.22
85319;BME280;75722;49.004;12.120;2024-01-27T03:02:13;99381.31;;;-0.33;75.94
85319;BME280;75722;49.004;12.120;2024-01-27T03:04:39;99384.25;;;-0.38;75.49
85319;BME280;75722;49.004;12.120;2024-01-27T03:07:04;99382.88;;;-0.45;75.63
85319;BME280;75722;49.004;12.120;2024-01-27T03:09:30;99387.78;;;-0.54;75.64
85319;BME280;75722;49.004;12.120;2024-01-27T03:11:56;99397.03;;;-0.61;76.10
85319;BME280;75722;49.004;12.120;2024-01-27T03:14:21;99396.38;;;-0.65;76.28
85319;BME280;75722;49.004;12.120;2024-01-27T03:16:46;99396.53;;;-0.52;75.80
85319;BME280;75722;49.004;12.120;2024-01-27T03:19:12;99396.19;;;-0.45;75.76
85319;BME280;75722;49.004;12.120;2024-01-27T03:21:37;99392.06;;;-0.35;75.63
85319;BME280;75722;49.004;12.120;2024-01-27T03:24:03;99392.81;;;-0.33;75.75
85319;BME280;75722;49.004;12.120;2024-01-27T03:26:29;99400.81;;;-0.33;75.41
85319;BME280;75722;49.004;12.120;2024-01-27T03:28:54;99406.03;;;-0.31;75.50
85319;BME280;75722;49.004;12.120;2024-01-27T03:31:20;99405.38;;;-0.35;75.34
85319;BME280;75722;49.004;12.120;2024-01-27T03:33:45;99408.63;;;-0.30;75.60
85319;BME280;75722;49.004;12.120;2024-01-27T03:36:12;99414.47;;;-0.39;75.43
85319;BME280;75722;49.004;12.120;2024-01-27T03:38:38;99410.53;;;-0.32;75.51
85319;BME280;75722;49.004;12.120;2024-01-27T03:41:04;99419.72;;;-0.37;75.32
85319;BME280;75722;49.004;12.120;2024-01-27T03:43:30;99426.34;;;-0.29;75.52
85319;BME280;75722;49.004;12.120;2024-01-27T03:45:56;99428.38;;;-0.34;74.98
85319;BME280;75722;49.004;12.120;2024-01-27T03:48:22;99430.03;;;-0.47;75.70
85319;BME280;75722;49.004;12.120;2024-01-27T03:50:47;99437.28;;;-0.51;75.35
85319;BME280;75722;49.004;12.120;2024-01-27T03:53:13;99439.00;;;-0.66;75.83
85319;BME280;75722;49.004;12.120;2024-01-27T03:55:39;99446.44;;;-0.73;75.98
85319;BME280;75722;49.004;12.120;2024-01-27T03:58:04;99445.53;;;-0.72;76.12
85319;BME280;75722;49.004;12.120;2024-01-27T04:00:30;99442.06;;;-0.74;75.80
85319;BME280;75722;49.004;12.120;2024-01-27T04:03:01;99444.81;;;-0.75;75.83
85319;BME280;75722;49.004;12.120;2024-01-27T04:05:28;99452.19;;;-0.81;76.06
85319;BME280;75722;49.004;12.120;2024-01-27T04:07:53;99454.41;;;-0.89;76.68
85319;BME280;75722;49.004;12.120;2024-01-27T04:10:22;99457.53;;;-0.98;76.88
85319;BME280;75722;49.004;12.120;2024-01-27T04:12:49;99461.22;;;-1.01;76.74
85319;BME280;75722;49.004;12.120;2024-01-27T04:15:14;99464.47;;;-1.12;76.59
85319;BME280;75722;49.004;12.120;2024-01-27T04:17:40;99462.50;;;-1.08;77.09
85319;BME280;75722;49.004;12.120;2024-01-27T04:20:07;99471.66;;;-1.14;77.03
85319;BME280;75722;49.004;12.120;2024-01-27T04:22:34;99471.19;;;-1.22;76.89
85319;BME280;75722;49.004;12.120;2024-01-27T04:24:59;99467.13;;;-1.30;77.69
85319;BME280;75722;49.004;12.120;2024-01-27T04:27:26;99475.59;;;-1.39;77.74
85319;BME280;75722;49.004;12.120;2024-01-27T04:29:52;99477.06;;;-1.51;77.60
85319;BME280;75722;49.004;12.120;2024-01-27T04:32:17;99485.03;;;-1.51;77.86
85319;BME280;75722;49.004;12.120;2024-01-27T04:34:42;99480.72;;;-1.53;77.48
85319;BME280;75722;49.004;12.120;2024-01-27T04:37:08;99476.75;;;-1.62;77.63
85319;BME280;75722;49.004;12.120;2024-01-27T04:39:33;99483.22;;;-1.68;77.89
85319;BME280;75722;49.004;12.120;2024-01-27T04:42:01;99491.41;;;-1.73;77.57
85319;BME280;75722;49.004;12.120;2024-01-27T04:44:27;99494.16;;;-1.74;78.01
85319;BME280;75722;49.004;12.120;2024-01-27T04:46:52;99503.63;;;-1.69;78.37
85319;BME280;75722;49.004;12.120;2024-01-27T04:49:17;99503.03;;;-1.75;78.02
85319;BME280;75722;49.004;12.120;2024-01-27T04:51:43;99502.22;;;-1.76;78.33
85319;BME280;75722;49.004;12.120;2024-01-27T04:54:11;99510.09;;;-1.74;78.55
85319;BME280;75722;49.004;12.120;2024-01-27T04:56:36;99519.94;;;-1.76;78.08
85319;BME280;75722;49.004;12.120;2024-01-27T04:59:02;99514.81;;;-1.81;78.36
85319;BME280;75722;49.004;12.120;2024-01-27T05:01:27;99519.59;;;-1.88;78.29
85319;BME280;75722;49.004;12.120;2024-01-27T05:03:53;99518.16;;;-1.95;78.29
85319;BME280;75722;49.004;12.120;2024-01-27T05:06:18;99525.50;;;-2.00;78.35
85319;BME280;75722;49.004;12.120;2024-01-27T05:08:43;99523.91;;;-2.04;78.47
85319;BME280;75722;49.004;12.120;2024-01-27T05:11:09;99524.06;;;-2.08;78.60
85319;BME280;75722;49.004;12.120;2024-01-27T05:13:34;99529.38;;;-2.08;78.51
85319;BME280;75722;49.004;12.120;2024-01-27T05:16:00;99522.47;;;-2.12;78.57
85319;BME280;75722;49.004;12.120;2024-01-27T05:18:26;99519.59;;;-2.07;78.92
85319;BME280;75722;49.004;12.120;2024-01-27T05:20:51;99521.97;;;-2.01;78.99
85319;BME280;75722;49.004;12.120;2024-01-27T05:23:16;99521.53;;;-1.91;78.79
85319;BME280;75722;49.004;12.120;2024-01-27T05:25:42;99522.94;;;-1.84;78.21
85319;BME280;75722;49.004;12.120;2024-01-27T05:28:07;99525.03;;;-1.91;78.81
85319;BME280;75722;49.004;12.120;2024-01-27T05:30:33;99526.19;;;-1.97;78.19
85319;BME280;75722;49.004;12.120;2024-01-27T05:32:58;99524.25;;;-2.12;78.61
85319;BME280;75722;49.004;12.120;2024-01-27T05:35:23;99529.00;;;-2.19;78.60
85319;BME280;75722;49.004;12.120;2024-01-27T05:37:49;99529.34;;;-2.27;78.56
85319;BME280;75722;49.004;12.120;2024-01-27T05:40:15;99533.09;;;-2.12;78.59
85319;BME280;75722;49.004;12.120;2024-01-27T05:42:41;99535.81;;;-2.13;78.83
85319;BME280;75722;49.004;12.120;2024-01-27T05:45:08;99528.72;;;-2.13;78.91
85319;BME280;75722;49.004;12.120;2024-01-27T05:47:35;99538.47;;;-2.13;79.04
85319;BME280;75722;49.004;12.120;2024-01-27T05:50:00;99544.19;;;-2.23;78.61
85319;BME280;75722;49.004;12.120;2024-01-27T05:52:26;99542.00;;;-2.32;78.81
85319;BME280;75722;49.004;12.120;2024-01-27T05:54:52;99544.13;;;-2.40;78.63
85319;BME280;75722;49.004;12.120;2024-01-27T05:57:17;99553.88;;;-2.41;78.70
85319;BME280;75722;49.004;12.120;2024-01-27T05:59:43;99548.31;;;-2.35;79.09
85319;BME280;75722;49.004;12.120;2024-01-27T06:02:08;99551.72;;;-2.33;78.92
85319;BME280;75722;49.004;12.120;2024-01-27T06:04:33;99558.91;;;-2.35;79.01
85319;BME280;75722;49.004;12.120;2024-01-27T06:06:59;99552.03;;;-2.39;79.09
85319;BME280;75722;49.004;12.120;2024-01-27T06:09:25;99548.31;;;-2.35;79.54
85319;BME280;75722;49.004;12.120;2024-01-27T06:11:50;99556.19;;;-2.33;79.20
85319;BME280;75722;49.004;12.120;2024-01-27T06:14:16;99556.06;;;-2.30;79.02
85319;BME280;75722;49.004;12.120;2024-01-27T06:16:41;99562.22;;;-2.29;79.11
85319;BME280;75722;49.004;12.120;2024-01-27T06:19:06;99561.78;;;-2.39;78.64
85319;BME280;75722;49.004;12.120;2024-01-27T06:21:32;99565.81;;;-2.51;79.07
85319;BME280;75722;49.004;12.120;2024-01-27T06:23:57;99569.63;;;-2.57;78.99
85319;BME280;75722;49.004;12.120;2024-01-27T06:26:22;99558.88;;;-2.54;79.04
85319;BME280;75722;49.004;12.120;2024-01-27T06:28:48;99563.03;;;-2.48;79.69
85319;BME280;75722;49.004;12.120;2024-01-27T06:31:13;99567.72;;;-2.53;79.32
85319;BME280;75722;49.004;12.120;2024-01-27T06:33:40;99566.00;;;-2.54;79.46
85319;BME280;75722;49.004;12.120;2024-01-27T06:36:05;99565.81;;;-2.51;79.69
85319;BME280;75722;49.004;12.120;2024-01-27T06:38:32;99570.22;;;-2.50;79.73
85319;BME280;75722;49.004;12.120;2024-01-27T06:40:58;99578.84;;;-2.45;79.57
85319;BME280;75722;49.004;12.120;2024-01-27T06:43:23;99578.75;;;-2.43;79.83
85319;BME280;75722;49.004;12.120;2024-01-27T06:45:49;99580.53;;;-2.44;79.62
85319;BME280;75722;49.004;12.120;2024-01-27T06:48:14;99591.03;;;-2.41;79.49
85319;BME280;75722;49.004;12.120;2024-01-27T06:50:39;99588.03;;;-2.33;79.59
85319;BME280;75722;49.004;12.120;2024-01-27T06:53:05;99592.47;;;-2.34;78.87
85319;BME280;75722;49.004;12.120;2024-01-27T06:55:30;99591.41;;;-2.29;79.08
85319;BME280;75722;49.004;12.120;2024-01-27T06:57:55;99584.09;;;-2.24;79.00
85319;BME280;75722;49.004;12.120;2024-01-27T07:00:21;99591.00;;;-2.20;78.80
85319;BME280;75722;49.004;12.120;2024-01-27T07:02:46;99588.25;;;-2.19;78.55
85319;BME280;75722;49.004;12.120;2024-01-27T07:05:12;99591.78;;;-2.18;78.55
85319;BME280;75722;49.004;12.120;2024-01-27T07:07:39;99588.03;;;-2.14;78.66
85319;BME280;75722;49.004;12.120;2024-01-27T07:10:05;99596.31;;;-2.01;78.74
85319;BME280;75722;49.004;12.120;2024-01-27T07:12:33;99607.44;;;-1.92;78.55
85319;BME280;75722;49.004;12.120;2024-01-27T07:14:58;99612.66;;;-1.91;78.38
85319;BME280;75722;49.004;12.120;2024-01-27T07:17:26;99610.38;;;-1.79;78.01
85319;BME280;75722;49.004;12.120;2024-01-27T07:19:51;99613.75;;;-1.76;78.02
85319;BME280;75722;49.004;12.120;2024-01-27T07:22:16;99603.84;;;-1.72;78.05
85319;BME280;75722;49.004;12.120;2024-01-27T07:24:42;99605.00;;;-1.59;77.29
85319;BME280;75722;49.004;12.120;2024-01-27T07:27:09;99609.84;;;-1.49;76.98
85319;BME280;75722;49.004;12.120;2024-01-27T07:29:34;99605.16;;;-1.44;77.26
85319;BME280;75722;49.004;12.120;2024-01-27T07:32:00;99600.41;;;-1.37;76.99
85319;BME280;75722;49.004;12.120;2024-01-27T07:34:25;99597.44;;;-1.31;77.01
85319;BME280;75722;49.004;12.120;2024-01-27T07:36:50;99591.75;;;-1.23;76.93
85319;BME280;75722;49.004;12.120;2024-01-27T07:39:16;99595.69;;;-1.13;76.64
85319;BME280;75722;49.004;12.120;2024-01-27T07:41:41;99604.13;;;-1.05;76.67
85319;BME280;75722;49.004;12.120;2024-01-27T07:44:12;99606.31;;;-0.95;75.81
85319;BME280;75722;49.004;12.120;2024-01-27T07:46:38;99616.31;;;-0.83;76.35
85319;BME280;75722;49.004;12.120;2024-01-27T07:49:05;99612.97;;;-0.69;76.45
85319;BME280;75722;49.004;12.120;2024-01-27T07:51:31;99619.78;;;-0.63;75.87
85319;BME280;75722;49.004;12.120;2024-01-27T07:53:57;99608.97;;;-0.60;75.95
85319;BME280;75722;49.004;12.120;2024-01-27T07:56:22;99618.34;;;-0.53;75.83
85319;BME280;75722;49.004;12.120;2024-01-27T07:58:47;99620.38;;;-0.40;75.10
85319;BME280;75722;49.004;12.120;2024-01-27T08:01:17;99623.41;;;-0.30;74.95
85319;BME280;75722;49.004;12.120;2024-01-27T08:03:42;99627.38;;;-0.21;75.22
85319;BME280;75722;49.004;12.120;2024-01-27T08:06:15;99639.09;;;-0.08;74.55
85319;BME280;75722;49.004;12.120;2024-01-27T08:08:43;99641.88;;;0.07;74.35
85319;BME280;75722;49.004;12.120;2024-01-27T08:11:08;99645.50;;;0.22;73.83
85319;BME280;75722;49.004;12.120;2024-01-27T08:13:34;99648.78;;;0.27;73.25
85319;BME280;75722;49.004;12.120;2024-01-27T08:15:59;99652.50;;;0.41;72.99
85319;BME280;75722;49.004;12.120;2024-01-27T08:18:24;99650.94;;;0.69;72.44
85319;BME280;75722;49.004;12.120;2024-01-27T08:20:50;99646.00;;;0.93;72.25
85319;BME280;75722;49.004;12.120;2024-01-27T08:23:15;99648.78;;;1.22;71.21
85319;BME280;75722;49.004;12.120;2024-01-27T08:25:40;99644.72;;;1.31;69.95
85319;BME280;75722;49.004;12.120;2024-01-27T08:28:06;99646.75;;;1.42;69.95
85319;BME280;75722;49.004;12.120;2024-01-27T08:30:31;99648.78;;;1.67;68.91
85319;BME280;75722;49.004;12.120;2024-01-27T08:32:57;99638.78;;;1.86;67.71
85319;BME280;75722;49.004;12.120;2024-01-27T08:35:22;99649.84;;;2.09;66.39
85319;BME280;75722;49.004;12.120;2024-01-27T08:37:47;99661.69;;;2.34;65.46
85319;BME280;75722;49.004;12.120;2024-01-27T08:40:13;99658.59;;;2.54;64.86
85319;BME280;75722;49.004;12.120;2024-01-27T08:42:39;99661.31;;;2.82;63.71
85319;BME280;75722;49.004;12.120;2024-01-27T08:45:05;99651.88;;;3.04;63.54
85319;BME280;75722;49.004;12.120;2024-01-27T08:47:31;99632.16;;;10.96;46.70
85319;BME280;75722;49.004;12.120;2024-01-27T08:49:56;99637.19;;;18.64;32.16
85319;BME280;75722;49.004;12.120;2024-01-27T08:52:22;99650.22;;;20.00;28.30
85319;BME280;75722;49.004;12.120;2024-01-27T08:54:47;99661.38;;;21.70;25.98
85319;BME280;75722;49.004;12.120;2024-01-27T08:57:13;99649.38;;;24.18;23.83
85319;BME280;75722;49.004;12.120;2024-01-27T08:59:38;99659.63;;;22.71;24.79
85319;BME280;75722;49.004;12.120;2024-01-27T09:02:03;99659.91;;;22.81;23.74
85319;BME280;75722;49.004;12.120;2024-01-27T09:04:29;99662.03;;;24.26;22.04
85319;BME280;75722;49.004;12.120;2024-01-27T09:06:54;99662.03;;;25.03;22.08
85319;BME280;75722;49.004;12.120;2024-01-27T09:09:19;99655.91;;;24.12;22.13
85319;BME280;75722;49.004;12.120;2024-01-27T09:11:45;99663.13;;;25.95;21.30
85319;BME280;75722;49.004;12.120;2024-01-27T09:14:11;99660.25;;;25.26;21.51
85319;BME280;75722;49.004;12.120;2024-01-27T09:16:36;99661.72;;;25.75;20.56
85319;BME280;75722;49.004;12.120;2024-01-27T09:19:02;99649.56;;;25.18;21.32
85319;BME280;75722;49.004;12.120;2024-01-27T09:21:27;99662.72;;;25.40;21.17
85319;BME280;75722;49.004;12.120;2024-01-27T09:23:57;99656.19;;;26.71;20.03
85319;BME280;75722;49.004;12.120;2024-01-27T09:26:23;99660.69;;;25.98;20.06
85319;BME280;75722;49.004;12.120;2024-01-27T09:28:48;99659.88;;;27.22;19.76
85319;BME280;75722;49.004;12.120;2024-01-27T09:31:22;99657.66;;;26.34;20.23
85319;BME280;75722;49.004;12.120;2024-01-27T09:33:52;99662.72;;;27.82;19.21
85319;BME280;75722;49.004;12.120;2024-01-27T09:36:18;99660.28;;;27.91;19.34
85319;BME280;75722;49.004;12.120;2024-01-27T09:38:44;99657.38;;;28.13;18.61
85319;BME280;75722;49.004;12.120;2024-01-27T09:41:10;99661.19;;;26.69;19.36
85319;BME280;75722;49.004;12.120;2024-01-27T09:43:37;99660.69;;;25.35;20.31
85319;BME280;75722;49.004;12.120;2024-01-27T09:46:05;99664.56;;;27.44;19.33
85319;BME280;75722;49.004;12.120;2024-01-27T09:48:31;99663.75;;;26.54;19.60
85319;BME280;75722;49.004;12.120;2024-01-27T09:50:58;99660.66;;;26.95;19.69
85319;BME280;75722;49.004;12.120;2024-01-27T09:53:23;99664.91;;;26.58;19.59
85319;BME280;75722;49.004;12.120;2024-01-27T09:55:49;99664.41;;;23.87;21.69
85319;BME280;75722;49.004;12.120;2024-01-27T09:58:15;99666.81;;;27.47;18.38
85319;BME280;75722;49.004;12.120;2024-01-27T10:00:41;99660.94;;;27.71;18.55
85319;BME280;75722;49.004;12.120;2024-01-27T10:03:07;99673.56;;;26.61;19.71
85319;BME280;75722;49.004;12.120;2024-01-27T10:05:33;99672.81;;;27.38;18.70
85319;BME280;75722;49.004;12.120;2024-01-27T10:07:59;99667.88;;;28.39;18.33
85319;BME280;75722;49.004;12.120;2024-01-27T10:10:24;99667.03;;;28.97;17.91
85319;BME280;75722;49.004;12.120;2024-01-27T10:12:52;99668.88;;;28.71;17.89
85319;BME280;75722;49.004;12.120;2024-01-27T10:15:22;99668.63;;;30.14;16.93
85319;BME280;75722;49.004;12.120;2024-01-27T10:17:47;99666.97;;;30.24;16.90
85319;BME280;75722;49.004;12.120;2024-01-27T10:20:13;99664.06;;;29.25;17.80
85319;BME280;75722;49.004;12.120;2024-01-27T10:22:41;99671.19;;;28.89;17.50
85319;BME280;75722;49.004;12.120;2024-01-27T10:25:07;99666.81;;;30.76;16.15
85319;BME280;75722;49.004;12.120;2024-01-27T10:27:33;99671.44;;;28.83;17.59
85319;BME280;75722;49.004;12.120;2024-01-27T10:29:59;99661.34;;;30.39;16.43
85319;BME280;75722;49.004;12.120;2024-01-27T10:32:24;99650.34;;;29.07;17.52
85319;BME280;75722;49.004;12.120;2024-01-27T10:35:01;99663.31;;;28.71;17.33
85319;BME280;75722;49.004;12.120;2024-01-27T10:37:26;99660.19;;;28.62;17.63
85319;BME280;75722;49.004;12.120;2024-01-27T10:40:06;99656.91;;;29.86;16.81
85319;BME280;75722;49.004;12.120;2024-01-27T10:42:35;99666.84;;;27.24;18.00
85319;BME280;75722;49.004;12.120;2024-01-27T10:45:03;99672.63;;;27.18;18.30
85319;BME280;75722;49.004;12.120;2024-01-27T10:47:30;99667.13;;;27.78;17.62
85319;BME280;75722;49.004;12.120;2024-01-27T10:49:57;99664.66;;;26.82;18.38
85319;BME280;75722;49.004;12.120;2024-01-27T10:52:24;99671.38;;;27.31;18.45
85319;BME280;75722;49.004;12.120;2024-01-27T10:55:04;99658.50;;;27.24;18.25
85319;BME280;75722;49.004;12.120;2024-01-27T10:57:33;99654.88;;;26.00;19.35
85319;BME280;75722;49.004;12.120;2024-01-27T11:00:00;99642.78;;;26.06;18.67
85319;BME280;75722;49.004;12.120;2024-01-27T11:02:26;99639.41;;;26.83;19.05
85319;BME280;75722;49.004;12.120;2024-01-27T11:04:53;99648.91;;;26.08;19.74
85319;BME280;75722;49.004;12.120;2024-01-27T11:07:20;99661.38;;;25.13;20.22
85319;BME280;75722;49.004;12.120;2024-01-27T11:09:49;99652.84;;;24.62;19.90
85319;BME280;75722;49.004;12.120;2024-01-27T11:12:21;99647.09;;;25.33;20.00
85319;BME280;75722;49.004;12.120;2024-01-27T11:14:48;99652.75;;;25.09;19.92
85319;BME280;75722;49.004;12.120;2024-01-27T11:17:14;99647.56;;;24.00;25.29
85319;BME280;75722;49.004;12.120;2024-01-27T11:19:41;99647.06;;;24.51;21.46
85319;BME280;75722;49.004;12.120;2024-01-27T11:22:06;99647.00;;;24.99;20.85
85319;BME280;75722;49.004;12.120;2024-01-27T11:24:32;99645.84;;;24.71;20.72
85319;BME280;75722;49.004;12.120;2024-01-27T11:27:04;99638.41;;;26.50;19.59
85319;BME280;75722;49.004;12.120;2024-01-27T11:29:30;99630.81;;;26.06;20.20
85319;BME280;75722;49.004;12.120;2024-01-27T11:32:00;99635.66;;;25.47;20.80
85319;BME280;75722;49.004;12.120;2024-01-27T11:34:26;99635.81;;;25.69;19.85
85319;BME280;75722;49.004;12.120;2024-01-27T11:36:51;99641.00;;;24.90;20.45
85319;BME280;75722;49.004;12.120;2024-01-27T11:39:29;99637.78;;;24.69;20.67
85319;BME280;75722;49.004;12.120;2024-01-27T11:42:09;99640.31;;;24.59;20.71
85319;BME280;75722;49.004;12.120;2024-01-27T11:44:37;99641.72;;;25.44;21.07
85319;BME280;75722;49.004;12.120;2024-01-27T11:47:03;99636.91;;;25.22;20.88
85319;BME280;75722;49.004;12.120;2024-01-27T11:49:29;99640.78;;;24.68;21.06
85319;BME280;75722;49.004;12.120;2024-01-27T11:51:54;99641.09;;;24.30;21.97
85319;BME280;75722;49.004;12.120;2024-01-27T11:54:20;99640.38;;;24.23;20.91
85319;BME280;75722;49.004;12.120;2024-01-27T11:56:45;99632.88;;;23.88;21.46
85319;BME280;75722;49.004;12.120;2024-01-27T11:59:11;99634.34;;;24.02;21.59
85319;BME280;75722;49.004;12.120;2024-01-27T12:01:37;99632.94;;;23.57;21.41
85319;BME280;75722;49.004;12.120;2024-01-27T12:04:03;99639.38;;;22.59;23.10
85319;BME280;75722;49.004;12.120;2024-01-27T12:06:29;99630.97;;;24.00;21.56
85319;BME280;75722;49.004;12.120;2024-01-27T12:08:56;99633.38;;;22.80;22.50
85319;BME280;75722;49.004;12.120;2024-01-27T12:11:23;99624.56;;;22.72;22.48
85319;BME280;75722;49.004;12.120;2024-01-27T12:13:49;99615.16;;;21.08;23.83
85319;BME280;75722;49.004;12.120;2024-01-27T12:16:15;99609.28;;;22.50;23.10
85319;BME280;75722;49.004;12.120;2024-01-27T12:18:41;99610.69;;;22.41;23.22
85319;BME280;75722;49.004;12.120;2024-01-27T12:21:06;99611.25;;;21.54;23.70
85319;BME280;75722;49.004;12.120;2024-01-27T12:23:32;99605.13;;;20.74;24.33
85319;BME280;75722;49.004;12.120;2024-01-27T12:25:57;99612.84;;;20.52;24.68
85319;BME280;75722;49.004;12.120;2024-01-27T12:28:23;99604.66;;;20.84;24.04
85319;BME280;75722;49.004;12.120;2024-01-27T12:30:51;99599.59;;;20.88;24.28
85319;BME280;75722;49.004;12.120;2024-01-27T12:33:17;99605.00;;;20.56;23.85
85319;BME280;75722;49.004;12.120;2024-01-27T12:35:47;99604.47;;;20.27;24.99
85319;BME280;75722;49.004;12.120;2024-01-27T12:38:13;99599.22;;;19.78;25.24
85319;BME280;75722;49.004;12.120;2024-01-27T12:40:38;99605.31;;;20.20;25.10
85319;BME280;75722;49.004;12.120;2024-01-27T12:43:03;99593.53;;;19.45;25.99
85319;BME280;75722;49.004;12.120;2024-01-27T12:45:29;99595.00;;;19.61;25.66
85319;BME280;75722;49.004;12.120;2024-01-27T12:47:55;99600.69;;;19.26;26.25